Time;durP1;ratioP1;P1;durP2;ratioP2;P2;SDS_P1;SDS_P2;PMS_P1;PMS_P2;Temp;Humidity;BMP_temperature;BMP_pressure;BME280_temperature;BME280_humidity;BME280_pressure;Samples;Min_cycle;Max_cycle;Signal;HPM_P1;HPM_P2
2023/08/14 00:01:55;;;;;;;3.53;0.30;;;;;;;19.68;72.65;100860.13;7361464;19;20288;-64
2023/08/14 00:04:22;;;;;;;2.30;0.30;;;;;;;19.63;72.81;100858.91;7364035;19;20614;-63
2023/08/14 00:06:49;;;;;;;4.15;0.40;;;;;;;19.62;72.62;100851.94;7361949;19;20566;-64
2023/08/14 00:09:16;;;;;;;5.43;0.93;;;;;;;19.61;72.65;100844.94;7360573;19;20094;-64
2023/08/14 00:11:43;;;;;;;6.13;0.43;;;;;;;19.63;72.79;100842.06;7356622;19;20010;-64
2023/08/14 00:14:10;;;;;;;3.63;0.40;;;;;;;19.61;73.06;100839.59;7359323;19;20023;-64
2023/08/14 00:16:37;;;;;;;3.15;0.30;;;;;;;19.59;73.59;100836.34;7362458;19;20442;-63
2023/08/14 00:19:04;;;;;;;3.30;0.40;;;;;;;19.60;74.02;100837.16;7363171;19;20081;-64
2023/08/14 00:21:31;;;;;;;4.03;0.40;;;;;;;19.61;74.54;100844.13;7359331;19;20506;-64
2023/08/14 00:23:58;;;;;;;3.05;0.30;;;;;;;19.60;74.45;100850.50;7359176;19;20014;-63
2023/08/14 00:26:31;;;;;;;3.50;0.32;;;;;;;19.59;75.69;100840.84;7357560;19;20037;-63
2023/08/14 00:29:04;;;;;;;5.15;0.40;;;;;;;19.57;76.25;100833.03;7357481;19;20030;-63
2023/08/14 00:31:31;;;;;;;3.03;0.40;;;;;;;19.56;77.00;100842.09;7360364;19;20173;-63
2023/08/14 00:33:58;;;;;;;6.10;1.50;;;;;;;19.56;78.07;100835.91;7361031;19;20014;-64
2023/08/14 00:36:31;;;;;;;4.72;0.60;;;;;;;19.54;78.48;100835.34;7359854;19;20460;-64
2023/08/14 00:38:58;;;;;;;3.47;0.45;;;;;;;19.53;79.02;100821.16;7361552;19;20018;-64
2023/08/14 00:41:25;;;;;;;4.53;0.55;;;;;;;19.53;79.30;100826.50;7357142;19;20019;-67
2023/08/14 00:43:52;;;;;;;5.72;0.40;;;;;;;19.52;79.78;100819.50;7360751;19;20018;-63
2023/08/14 00:46:20;;;;;;;3.97;0.40;;;;;;;19.49;79.92;100821.78;7360505;19;20067;-64
2023/08/14 00:49:01;;;;;;;6.57;0.40;;;;;;;19.50;81.10;100815.44;7359452;19;20055;-64
2023/08/14 00:51:28;;;;;;;7.07;0.47;;;;;;;19.49;81.52;100824.47;7360064;19;20014;-64
2023/08/14 00:53:56;;;;;;;10.30;1.60;;;;;;;19.48;81.45;100815.63;7360560;19;20015;-63
2023/08/14 00:56:37;;;;;;;3.97;0.40;;;;;;;19.46;81.82;100819.53;7357810;19;20613;-64
2023/08/14 00:59:05;;;;;;;5.88;0.40;;;;;;;19.46;81.76;100811.53;7358313;19;20014;-63
2023/08/14 01:01:32;;;;;;;5.38;0.43;;;;;;;19.43;82.26;100804.75;7361297;19;20023;-63
2023/08/14 01:03:59;;;;;;;6.38;0.35;;;;;;;19.42;82.42;100800.44;7360694;19;20031;-63
2023/08/14 01:06:32;;;;;;;4.90;0.82;;;;;;;19.41;83.28;100813.97;7358141;19;20410;-62
2023/08/14 01:08:59;;;;;;;7.75;0.43;;;;;;;19.41;82.86;100803.31;7360979;19;20442;-64
2023/08/14 01:12:04;;;;;;;6.05;0.55;;;;;;;19.41;82.78;100796.13;7357128;19;20019;-63
2023/08/14 01:14:33;;;;;;;4.47;0.50;;;;;;;19.41;82.69;100796.13;7355675;19;20031;-63
2023/08/14 01:17:07;;;;;;;6.40;0.82;;;;;;;19.37;82.81;100791.41;7360363;19;20022;-64
2023/08/14 01:19:39;;;;;;;6.43;0.45;;;;;;;19.34;82.98;100789.19;7360753;19;20918;-63
2023/08/14 01:22:32;;;;;;;;;;;;;;;19.34;83.30;100784.66;7358787;19;20028;-63
2023/08/14 01:24:59;;;;;;;5.00;0.30;;;;;;;19.33;83.37;100785.69;7360268;19;19938;-63
2023/08/14 01:27:27;;;;;;;7.43;0.47;;;;;;;19.31;83.41;100785.06;7356317;19;20031;-63
2023/08/14 01:29:59;;;;;;;3.03;0.30;;;;;;;19.34;83.97;100773.16;7360010;19;20121;-64
2023/08/14 01:32:26;;;;;;;5.05;0.30;;;;;;;19.33;83.56;100767.00;7359933;19;21013;-62
2023/08/14 01:34:55;;;;;;;8.07;0.57;;;;;;;19.33;83.60;100769.69;7360226;19;20018;-63
2023/08/14 01:37:28;;;;;;;3.28;0.47;;;;;;;19.33;83.83;100768.84;7359618;19;20014;-64
2023/08/14 01:40:07;;;;;;;7.00;0.60;;;;;;;19.35;84.21;100761.47;7359002;19;20122;-64
2023/08/14 01:42:38;;;;;;;7.40;0.75;;;;;;;19.34;83.64;100763.31;7351375;19;20026;-63
2023/08/14 01:45:11;;;;;;;6.03;0.60;;;;;;;19.35;83.93;100759.59;7358592;19;20014;-64
2023/08/14 01:47:42;;;;;;;6.72;0.40;;;;;;;19.35;83.57;100764.94;7358941;19;20018;-63
2023/08/14 01:50:10;;;;;;;3.03;0.40;;;;;;;19.34;83.67;100765.97;7360672;19;20022;-63
2023/08/14 01:52:37;;;;;;;4.05;0.82;;;;;;;19.32;83.37;100752.03;7356764;19;20015;-63
2023/08/14 01:55:04;;;;;;;6.85;0.45;;;;;;;19.30;83.46;100743.41;7357520;19;20018;-63
2023/08/14 01:57:33;;;;;;;8.60;0.75;;;;;;;19.32;84.15;100756.53;7353910;19;21001;-65
2023/08/14 02:00:01;;;;;;;5.55;0.45;;;;;;;19.33;83.93;100752.84;7358051;19;20015;-66
2023/08/14 02:02:28;;;;;;;8.95;0.70;;;;;;;19.34;83.37;100759.81;7357233;19;20018;-64
2023/08/14 02:04:55;;;;;;;6.57;0.77;;;;;;;19.35;83.26;100759.59;7360104;19;20056;-64
2023/08/14 02:07:22;;;;;;;7.95;0.98;;;;;;;19.34;83.09;100749.97;7359181;19;20082;-64
2023/08/14 02:09:49;;;;;;;6.90;0.47;;;;;;;19.35;83.58;100746.25;7358278;19;21076;-63
2023/08/14 02:12:16;;;;;;;6.35;0.40;;;;;;;19.33;83.38;100748.31;7354666;19;20764;-63
2023/08/14 02:14:43;;;;;;;6.65;0.73;;;;;;;19.33;83.78;100743.00;7357177;19;20555;-63
2023/08/14 02:17:10;;;;;;;13.30;3.50;;;;;;;19.32;83.80;100741.34;7359291;19;20019;-63
2023/08/14 02:19:37;;;;;;;5.15;0.75;;;;;;;19.31;83.83;100741.56;7356896;19;20085;-63
2023/08/14 02:22:04;;;;;;;4.65;1.00;;;;;;;19.33;83.43;100747.50;7358477;19;20085;-64
2023/08/14 02:24:31;;;;;;;3.95;0.60;;;;;;;19.30;82.84;100745.28;7357061;19;20021;-63
2023/08/14 02:26:58;;;;;;;4.60;0.40;;;;;;;19.30;83.05;100743.41;7354664;19;20563;-63
2023/08/14 02:29:25;;;;;;;6.72;0.60;;;;;;;19.31;83.58;100749.56;7356928;19;20018;-64
2023/08/14 02:31:52;;;;;;;6.47;0.50;;;;;;;19.32;83.72;100743.19;7356300;19;20118;-63
2023/08/14 02:34:41;;;;;;;6.75;0.38;;;;;;;19.31;83.73;100745.03;7363800;19;20618;-63
2023/08/14 02:37:09;;;;;;;4.80;0.60;;;;;;;19.27;83.33;100740.34;7365298;19;20015;-64
2023/08/14 02:39:36;;;;;;;6.70;0.50;;;;;;;19.27;83.83;100748.34;7363798;19;20038;-64
2023/08/14 02:42:03;;;;;;;5.30;0.75;;;;;;;19.26;83.93;100741.38;7358471;19;20010;-64
2023/08/14 02:44:30;;;;;;;5.30;0.60;;;;;;;19.27;84.31;100740.34;7359742;19;20962;-64
2023/08/14 02:46:58;;;;;;;5.55;0.57;;;;;;;19.28;84.18;100739.31;7365206;19;20015;-64
2023/08/14 02:49:25;;;;;;;6.90;0.50;;;;;;;19.28;83.74;100741.97;7362517;19;20093;-64
2023/08/14 02:51:52;;;;;;;4.45;0.40;;;;;;;19.27;84.19;100735.00;7363337;19;21888;-63
2023/08/14 02:54:19;;;;;;;4.45;0.50;;;;;;;19.26;84.00;100734.19;7361571;19;20615;-64
2023/08/14 02:56:47;;;;;;;5.43;0.40;;;;;;;19.27;83.72;100735.00;7359493;19;20018;-64
2023/08/14 02:59:17;;;;;;;3.55;0.43;;;;;;;19.26;83.35;100738.69;7365299;19;20030;-63
2023/08/14 03:01:44;;;;;;;3.90;0.50;;;;;;;19.26;83.57;100741.38;7364422;19;20014;-63
2023/08/14 03:04:15;;;;;;;5.65;0.40;;;;;;;19.26;83.31;100739.50;7365251;19;20414;-64
2023/08/14 03:06:42;;;;;;;3.75;0.45;;;;;;;19.26;83.42;100744.03;7365521;19;20046;-64
2023/08/14 03:09:09;;;;;;;5.30;0.50;;;;;;;19.23;83.96;100743.44;7362600;19;20490;-63
2023/08/14 03:11:36;;;;;;;4.53;0.40;;;;;;;19.26;85.07;100749.38;7358734;19;20971;-63
2023/08/14 03:14:04;;;;;;;6.85;0.50;;;;;;;19.22;85.84;100757.81;7363679;19;20036;-64
2023/08/14 03:16:34;;;;;;;5.10;0.52;;;;;;;19.23;86.80;100759.44;7364456;19;20022;-64
2023/08/14 03:19:01;;;;;;;10.75;1.92;;;;;;;19.21;88.44;100766.00;7362780;19;20018;-63
2023/08/14 03:21:28;;;;;;;7.95;0.80;;;;;;;19.16;89.04;100766.66;7364898;19;20018;-64
2023/08/14 03:23:56;;;;;;;9.13;0.60;;;;;;;19.09;90.14;100763.19;7363544;19;20014;-64
2023/08/14 03:26:40;;;;;;;7.13;0.50;;;;;;;19.01;91.24;100755.41;7362303;19;20097;-64
2023/08/14 03:29:10;;;;;;;7.22;0.80;;;;;;;18.94;92.63;100754.63;7364092;19;20006;-63
2023/08/14 03:31:37;;;;;;;8.70;0.57;;;;;;;18.84;93.02;100745.41;7362619;19;20700;-63
2023/08/14 03:34:05;;;;;;;8.25;0.60;;;;;;;18.77;94.02;100748.91;7365099;19;20018;-63
2023/08/14 03:36:32;;;;;;;5.95;0.70;;;;;;;18.73;94.64;100739.69;7361083;19;20050;-63
2023/08/14 03:38:59;;;;;;;6.20;0.82;;;;;;;18.71;95.88;100738.25;7364576;19;20014;-63
2023/08/14 03:41:26;;;;;;;4.50;0.68;;;;;;;18.66;96.39;100740.72;7361505;19;20014;-62
2023/08/14 03:43:53;;;;;;;4.10;0.60;;;;;;;18.63;96.68;100730.50;7357807;19;20055;-63
2023/08/14 03:46:20;;;;;;;5.97;0.65;;;;;;;18.61;97.25;100730.69;7359492;19;20018;-63
2023/08/14 03:48:47;;;;;;;2.70;0.80;;;;;;;18.54;97.37;100729.06;7364170;19;20020;-63
2023/08/14 03:51:14;;;;;;;3.53;1.00;;;;;;;18.55;97.79;100728.03;7361673;19;20018;-63
2023/08/14 03:53:41;;;;;;;6.80;0.60;;;;;;;18.52;97.28;100733.75;7361953;19;20094;-63
2023/08/14 03:56:08;;;;;;;5.78;0.50;;;;;;;18.47;96.97;100729.03;7360191;19;20018;-66
2023/08/14 03:58:35;;;;;;;6.80;0.63;;;;;;;18.47;97.23;100717.56;7362162;19;20022;-63
2023/08/14 04:01:02;;;;;;;4.82;0.60;;;;;;;18.47;97.57;100712.22;7362943;19;20023;-63
2023/08/14 04:03:29;;;;;;;6.38;0.80;;;;;;;18.47;97.96;100715.72;7361064;19;20362;-62
2023/08/14 04:05:59;;;;;;;5.18;0.80;;;;;;;18.47;97.88;100720.22;7362336;19;20014;-64
2023/08/14 04:08:26;;;;;;;3.25;0.60;;;;;;;18.38;97.30;100715.13;7361178;19;20855;-63
2023/08/14 04:10:55;;;;;;;5.97;0.60;;;;;;;18.36;97.17;100708.34;7362890;19;20090;-63
2023/08/14 04:13:23;;;;;;;4.75;0.50;;;;;;;18.33;97.78;100700.78;7359797;19;20018;-64
2023/08/14 04:15:50;;;;;;;6.05;0.52;;;;;;;18.29;98.12;100696.84;7360689;19;20089;-63
2023/08/14 04:18:17;;;;;;;5.05;0.60;;;;;;;18.30;98.98;100693.19;7358411;19;20388;-63
2023/08/14 04:20:44;;;;;;;3.80;0.60;;;;;;;18.25;98.99;100695.63;7361502;19;20034;-63
2023/08/14 04:23:11;;;;;;;14.02;4.57;;;;;;;18.23;99.29;100692.38;7360183;19;20590;-62
2023/08/14 04:25:38;;;;;;;6.85;0.80;;;;;;;18.26;100.00;100684.78;7361261;19;20022;-62
2023/08/14 04:28:05;;;;;;;5.65;1.13;;;;;;;18.29;100.00;100675.56;7360503;19;20032;-63
2023/08/14 04:30:32;;;;;;;7.65;0.88;;;;;;;18.27;100.00;100673.13;7363379;19;20692;-64
2023/08/14 04:32:59;;;;;;;7.03;0.85;;;;;;;18.26;99.83;100671.47;7362140;19;20018;-64
2023/08/14 04:35:27;;;;;;;6.32;0.90;;;;;;;18.25;99.61;100661.00;7359061;19;20030;-64
2023/08/14 04:37:54;;;;;;;5.93;0.70;;;;;;;18.26;100.00;100660.81;7361507;19;20029;-64
2023/08/14 04:40:21;;;;;;;5.93;0.70;;;;;;;18.26;100.00;100662.66;7357639;19;20018;-63
2023/08/14 04:42:48;;;;;;;5.53;0.98;;;;;;;18.26;100.00;100652.81;7360280;19;20023;-63
2023/08/14 04:45:29;;;;;;;7.50;1.67;;;;;;;18.27;100.00;100654.47;7357829;19;20010;-63
2023/08/14 04:47:57;;;;;;;4.18;0.93;;;;;;;18.24;100.00;100654.84;7363555;19;20024;-64
2023/08/14 04:50:24;;;;;;;5.70;1.00;;;;;;;18.23;100.00;100653.25;7362324;19;20002;-63
2023/08/14 04:52:51;;;;;;;6.18;0.90;;;;;;;18.23;100.00;100639.94;7360716;19;20510;-64
2023/08/14 04:55:23;;;;;;;6.55;0.80;;;;;;;18.21;100.00;100644.63;7359570;19;20110;-64
2023/08/14 04:57:50;;;;;;;10.73;1.63;;;;;;;18.21;100.00;100651.81;7357544;19;20011;-63
2023/08/14 05:00:17;;;;;;;6.75;0.95;;;;;;;18.21;100.00;100646.47;7360712;19;20014;-64
2023/08/14 05:02:45;;;;;;;4.63;1.50;;;;;;;18.23;100.00;100639.94;7361248;19;20023;-64
2023/08/14 05:05:31;;;;;;;7.45;0.90;;;;;;;18.25;100.00;100640.53;7361639;19;21795;-64
2023/08/14 05:07:58;;;;;;;5.22;0.82;;;;;;;18.25;100.00;100642.38;7360859;19;20520;-63
2023/08/14 05:10:25;;;;;;;5.03;1.20;;;;;;;18.23;100.00;100634.59;7359046;19;20031;-63
2023/08/14 05:12:52;;;;;;;5.45;1.00;;;;;;;18.26;100.00;100636.84;7354200;19;20007;-63
2023/08/14 05:15:25;;;;;;;7.15;1.42;;;;;;;18.31;100.00;100638.88;7358563;19;20110;-63
2023/08/14 05:17:55;;;;;;;6.85;1.13;;;;;;;18.32;100.00;100646.66;7358679;19;20019;-64
2023/08/14 05:20:22;;;;;;;5.25;1.27;;;;;;;18.35;100.00;100648.09;7360382;19;20023;-62
2023/08/14 05:22:49;;;;;;;6.32;1.30;;;;;;;18.35;100.00;100634.75;7360895;19;20117;-62
2023/08/14 05:25:18;;;;;;;8.35;1.60;;;;;;;18.32;100.00;100636.00;7358753;19;20105;-63
2023/08/14 05:27:45;;;;;;;7.70;2.00;;;;;;;18.35;100.00;100640.09;7356888;19;20018;-64
2023/08/14 05:30:15;;;;;;;8.90;1.58;;;;;;;18.41;100.00;100641.09;7359291;19;20018;-63
2023/08/14 05:32:43;;;;;;;8.50;1.30;;;;;;;18.44;100.00;100632.72;7360370;19;20014;-64
2023/08/14 05:35:16;;;;;;;4.97;1.25;;;;;;;18.47;100.00;100627.78;7356581;19;20010;-63
2023/08/14 05:37:55;;;;;;;5.35;1.33;;;;;;;18.49;100.00;100633.69;7360307;19;20018;-62
2023/08/14 05:40:22;;;;;;;;;;;;;;;18.51;100.00;100625.50;7356682;19;20087;-63
2023/08/14 05:43:08;;;;;;;6.30;1.30;;;;;;;18.48;100.00;100624.09;7357432;19;19982;-63
2023/08/14 05:45:37;;;;;;;7.28;3.25;;;;;;;18.51;100.00;100621.00;7357179;19;20033;-63
2023/08/14 05:48:06;;;;;;;7.25;1.75;;;;;;;18.54;100.00;100625.94;7356618;19;20681;-64
2023/08/14 05:50:34;;;;;;;5.47;1.75;;;;;;;18.58;100.00;100632.50;7360541;19;20360;-63
2023/08/14 05:53:06;;;;;;;5.43;1.23;;;;;;;18.62;100.00;100627.56;7358488;19;20022;-62
2023/08/14 05:55:41;;;;;;;7.28;1.38;;;;;;;18.62;100.00;100631.03;7357318;19;20015;-64
2023/08/14 05:58:08;;;;;;;7.93;1.60;;;;;;;18.64;100.00;100628.97;7355892;19;20018;-64
2023/08/14 06:00:37;;;;;;;6.47;1.55;;;;;;;18.67;100.00;100627.75;7358314;19;20098;-63
2023/08/14 06:03:05;;;;;;;8.15;1.33;;;;;;;18.68;100.00;100640.03;7360172;19;20017;-63
2023/08/14 06:05:32;;;;;;;6.53;1.77;;;;;;;18.71;100.00;100634.28;7357889;19;20018;-63
2023/08/14 06:08:01;;;;;;;7.05;1.58;;;;;;;18.70;100.00;100641.47;7362123;19;20026;-63
2023/08/14 06:10:28;;;;;;;7.32;1.50;;;;;;;18.71;100.00;100640.44;7361822;19;20734;-62
2023/08/14 06:12:56;;;;;;;6.53;1.25;;;;;;;18.72;100.00;100634.09;7362145;19;20011;-63
2023/08/14 06:15:24;;;;;;;5.35;1.38;;;;;;;18.72;100.00;100641.25;7364034;19;20029;-64
2023/08/14 06:17:52;;;;;;;9.57;2.17;;;;;;;18.73;100.00;100643.72;7367131;19;20011;-65
2023/08/14 06:20:20;;;;;;;5.30;1.40;;;;;;;18.74;100.00;100637.34;7365357;19;20014;-64
2023/08/14 06:22:47;;;;;;;9.05;1.95;;;;;;;18.77;100.00;100636.13;7365359;19;20010;-64
2023/08/14 06:25:21;;;;;;;4.65;1.60;;;;;;;18.81;100.00;100647.97;7366988;19;20498;-66
2023/08/14 06:27:48;;;;;;;6.90;1.60;;;;;;;18.81;100.00;100645.31;7362417;19;20363;-64
2023/08/14 06:30:15;;;;;;;6.60;1.58;;;;;;;18.84;100.00;100642.25;7358535;19;20018;-63
2023/08/14 06:32:42;;;;;;;6.45;1.58;;;;;;;18.84;100.00;100636.91;7359939;19;20081;-63
2023/08/14 06:35:14;;;;;;;9.10;1.42;;;;;;;18.86;100.00;100634.03;7365069;19;20026;-63
2023/08/14 06:37:54;;;;;;;6.72;1.42;;;;;;;18.87;100.00;100631.16;7365367;19;20359;-63
2023/08/14 06:40:21;;;;;;;12.85;2.67;;;;;;;18.87;100.00;100628.47;7363124;19;20014;-64
2023/08/14 06:42:49;;;;;;;9.77;1.75;;;;;;;18.91;100.00;100629.69;7360125;19;20014;-63
2023/08/14 06:45:23;;;;;;;4.15;1.65;;;;;;;18.93;100.00;100619.63;7362861;19;20857;-64
2023/08/14 06:47:50;;;;;;;6.72;1.60;;;;;;;18.92;100.00;100617.19;7361456;19;20017;-63
2023/08/14 06:50:17;;;;;;;8.20;2.10;;;;;;;18.90;100.00;100620.03;7364320;19;20036;-64
2023/08/14 06:52:46;;;;;;;8.95;2.40;;;;;;;18.90;100.00;100620.03;7366874;19;21581;-64
2023/08/14 06:55:20;;;;;;;7.97;2.25;;;;;;;18.92;100.00;100622.50;7361150;19;20014;-64
2023/08/14 06:57:48;;;;;;;6.60;2.00;;;;;;;18.93;100.00;100613.50;7360072;19;20025;-63
2023/08/14 07:00:15;;;;;;;7.68;3.00;;;;;;;18.97;100.00;100610.19;7361724;19;20046;-63
2023/08/14 07:02:45;;;;;;;11.73;3.00;;;;;;;19.01;100.00;100607.88;7364410;19;20105;-64
2023/08/14 07:05:29;;;;;;;7.93;2.40;;;;;;;19.01;100.00;100606.03;7366776;19;20081;-64
2023/08/14 07:07:56;;;;;;;7.65;2.63;;;;;;;19.03;100.00;100613.84;7365580;19;20539;-63
2023/08/14 07:10:23;;;;;;;9.38;2.72;;;;;;;19.05;100.00;100604.59;7364434;19;20017;-63
2023/08/14 07:12:50;;;;;;;8.48;2.58;;;;;;;19.10;100.00;100607.44;7360062;19;20010;-64
2023/08/14 07:15:22;;;;;;;7.38;2.80;;;;;;;19.13;100.00;100611.53;7362778;19;20038;-66
2023/08/14 07:17:52;;;;;;;9.07;2.95;;;;;;;19.19;100.00;100608.84;7364632;19;20014;-63
2023/08/14 07:20:19;;;;;;;8.80;2.72;;;;;;;19.23;100.00;100603.88;7362251;19;20011;-63
2023/08/14 07:22:54;;;;;;;10.90;4.85;;;;;;;19.25;100.00;100596.47;7362759;19;20018;-63
2023/08/14 07:25:29;;;;;;;9.23;2.63;;;;;;;19.29;100.00;100602.19;7361088;19;20036;-64
2023/08/14 07:28:03;;;;;;;10.10;3.05;;;;;;;19.30;100.00;100601.97;7360238;19;19999;-64
2023/08/14 07:30:30;;;;;;;6.70;3.58;;;;;;;19.32;100.00;100599.09;7363040;19;20023;-63
2023/08/14 07:32:58;;;;;;;13.18;4.03;;;;;;;19.36;100.00;100598.44;7360323;19;20018;-63
2023/08/14 07:35:32;;;;;;;7.00;2.67;;;;;;;19.39;100.00;100592.69;7363717;19;20025;-64
2023/08/14 07:37:59;;;;;;;12.75;5.22;;;;;;;19.41;100.00;100603.13;7366546;19;20022;-64
2023/08/14 07:40:26;;;;;;;6.15;2.35;;;;;;;19.44;100.00;100611.56;7362055;19;20029;-64
2023/08/14 07:42:53;;;;;;;7.90;3.15;;;;;;;19.46;100.00;100608.66;7358288;19;20018;-64
2023/08/14 07:45:27;;;;;;;5.05;2.42;;;;;;;19.50;100.00;100615.25;7362160;19;20006;-64
2023/08/14 07:47:55;;;;;;;9.73;3.08;;;;;;;19.52;100.00;100623.81;7360902;19;20042;-64
2023/08/14 07:50:22;;;;;;;4.50;2.50;;;;;;;19.54;100.00;100625.25;7361208;19;20015;-65
2023/08/14 07:52:49;;;;;;;9.27;2.38;;;;;;;19.63;100.00;100617.78;7357626;19;20913;-63
2023/08/14 07:55:29;;;;;;;7.20;2.65;;;;;;;19.72;100.00;100611.16;7362769;19;20019;-64
2023/08/14 07:57:56;;;;;;;9.07;3.35;;;;;;;19.79;100.00;100608.44;7360233;19;20152;-64
2023/08/14 08:00:23;;;;;;;6.88;2.42;;;;;;;19.86;100.00;100610.00;7359218;19;20007;-64
2023/08/14 08:02:51;;;;;;;8.43;2.55;;;;;;;19.92;100.00;100606.44;7363335;19;20053;-64
2023/08/14 08:05:25;;;;;;;11.00;2.80;;;;;;;19.94;100.00;100601.72;7360952;19;20019;-64
2023/08/14 08:07:53;;;;;;;7.43;3.13;;;;;;;19.98;100.00;100610.09;7361091;19;20022;-63
2023/08/14 08:10:20;;;;;;;5.80;2.58;;;;;;;20.02;100.00;100603.28;7361906;19;20018;-63
2023/08/14 08:12:47;;;;;;;8.05;2.47;;;;;;;20.06;100.00;100607.94;7357196;19;20517;-64
2023/08/14 08:15:24;;;;;;;8.10;2.42;;;;;;;20.11;100.00;100601.97;7361628;19;20075;-63
2023/08/14 08:18:04;;;;;;;6.88;2.40;;;;;;;20.13;100.00;100602.56;7361629;19;20018;-64
2023/08/14 08:20:31;;;;;;;5.80;2.10;;;;;;;20.20;100.00;100597.16;7360972;19;20048;-63
2023/08/14 08:22:58;;;;;;;10.70;2.28;;;;;;;20.21;100.00;100604.13;7360852;19;20130;-63
2023/08/14 08:25:25;;;;;;;6.38;1.55;;;;;;;20.23;100.00;100594.84;7359674;19;20011;-64
2023/08/14 08:27:52;;;;;;;11.73;2.08;;;;;;;20.28;100.00;100596.84;7358523;19;20097;-65
2023/08/14 08:30:19;;;;;;;9.25;1.50;;;;;;;20.35;100.00;100597.63;7360905;19;20039;-63
2023/08/14 08:32:46;;;;;;;5.18;1.10;;;;;;;20.34;98.74;100593.31;7361591;19;20024;-64
2023/08/14 08:35:20;;;;;;;4.45;1.40;;;;;;;20.40;98.96;100587.09;7361990;19;20714;-64
2023/08/14 08:37:57;;;;;;;5.70;1.30;;;;;;;20.46;99.14;100596.91;7363683;19;20567;-64
2023/08/14 08:40:25;;;;;;;4.55;1.25;;;;;;;20.51;100.00;100597.06;7361883;19;20594;-64
2023/08/14 08:42:52;;;;;;;4.70;1.15;;;;;;;20.49;98.39;100591.91;7359189;19;21054;-63
2023/08/14 08:45:36;;;;;;;4.65;1.20;;;;;;;20.49;97.38;100594.59;7358105;19;20933;-64
2023/08/14 08:48:05;;;;;;;4.82;0.90;;;;;;;20.50;96.20;100600.75;7359353;19;20010;-63
2023/08/14 08:50:33;;;;;;;7.20;1.80;;;;;;;20.56;96.82;100602.53;7355311;19;20022;-63
2023/08/14 08:53:00;;;;;;;5.75;1.05;;;;;;;20.63;98.18;100599.78;7359528;19;20022;-64
2023/08/14 08:55:33;;;;;;;4.85;1.23;;;;;;;20.64;97.87;100590.72;7358981;19;20022;-62
2023/08/14 08:58:01;;;;;;;;;;;;;;;20.64;96.86;100599.56;7359020;19;20341;-64
2023/08/14 09:00:28;;;;;;;5.88;1.10;;;;;;;20.60;95.41;100595.69;7360533;19;19918;-64
2023/08/14 09:02:55;;;;;;;3.63;1.20;;;;;;;20.63;96.96;100608.63;7357636;19;20056;-64
2023/08/14 09:05:36;;;;;;;5.85;0.90;;;;;;;20.68;97.59;100611.44;7360159;19;20362;-64
2023/08/14 09:08:04;;;;;;;4.93;1.15;;;;;;;20.71;97.87;100612.84;7359546;19;20692;-64
2023/08/14 09:10:31;;;;;;;3.53;0.70;;;;;;;20.71;97.26;100611.00;7356269;19;20010;-63
2023/08/14 09:12:58;;;;;;;11.18;1.48;;;;;;;20.72;96.17;100617.16;7356583;19;20014;-64
2023/08/14 09:15:40;;;;;;;4.65;1.35;;;;;;;20.76;95.19;100621.84;7359246;19;20014;-64
2023/08/14 09:18:10;;;;;;;6.28;0.90;;;;;;;20.83;95.42;100614.53;7360934;19;20032;-64
2023/08/14 09:20:38;;;;;;;6.78;0.80;;;;;;;20.83;94.04;100609.19;7359234;19;20046;-64
2023/08/14 09:23:12;;;;;;;5.80;0.80;;;;;;;20.81;90.74;100610.47;7359347;19;20158;-63
2023/08/14 09:25:45;;;;;;;3.13;0.50;;;;;;;20.86;89.86;100610.59;7356392;19;20149;-64
2023/08/14 09:28:13;;;;;;;5.60;0.80;;;;;;;20.93;90.51;100614.00;7358032;19;20034;-65
2023/08/14 09:30:40;;;;;;;4.95;0.57;;;;;;;20.98;90.80;100622.16;7359524;19;20018;-63
2023/08/14 09:33:09;;;;;;;6.00;0.90;;;;;;;21.03;90.07;100618.84;7360924;19;20027;-65
2023/08/14 09:35:38;;;;;;;7.05;0.80;;;;;;;21.08;89.97;100614.41;7359997;19;20097;-64
2023/08/14 09:38:05;;;;;;;4.78;0.70;;;;;;;21.09;90.31;100604.53;7357108;19;20043;-63
2023/08/14 09:40:33;;;;;;;8.68;0.90;;;;;;;21.11;90.02;100591.75;7359087;19;20018;-64
2023/08/14 09:43:00;;;;;;;6.43;0.70;;;;;;;21.14;89.66;100600.16;7358757;19;20086;-64
2023/08/14 09:45:34;;;;;;;6.15;0.88;;;;;;;21.18;88.90;100595.19;7363524;19;20014;-64
2023/08/14 09:48:05;;;;;;;4.97;0.88;;;;;;;21.19;88.18;100596.78;7366922;19;21773;-63
2023/08/14 09:50:32;;;;;;;4.85;0.80;;;;;;;21.17;87.50;100597.03;7360978;19;20018;-66
2023/08/14 09:53:00;;;;;;;3.85;0.63;;;;;;;21.20;87.31;100596.56;7366530;19;20010;-64
2023/08/14 09:55:28;;;;;;;6.40;0.60;;;;;;;21.23;87.79;100589.97;7365826;19;20014;-64
2023/08/14 09:57:58;;;;;;;9.93;1.00;;;;;;;21.26;87.54;100594.84;7362572;19;20014;-64
2023/08/14 10:00:30;;;;;;;4.88;0.77;;;;;;;21.28;87.58;100590.09;7366375;19;20014;-64
2023/08/14 10:02:59;;;;;;;2.58;0.50;;;;;;;21.30;86.39;100578.09;7365671;19;20113;-62
2023/08/14 10:05:33;;;;;;;5.88;0.70;;;;;;;21.34;85.57;100583.81;7364228;19;20006;-63
2023/08/14 10:08:03;;;;;;;6.40;0.60;;;;;;;21.38;85.50;100566.25;7367050;19;21032;-63
2023/08/14 10:10:32;;;;;;;5.95;0.65;;;;;;;21.44;85.14;100564.50;7361963;19;20018;-64
2023/08/14 10:13:04;;;;;;;7.63;1.77;;;;;;;21.53;86.08;100561.28;7360362;19;20022;-64
2023/08/14 10:15:34;;;;;;;5.78;0.60;;;;;;;21.59;85.76;100564.88;7365118;19;20113;-63
2023/08/14 10:18:11;;;;;;;4.97;0.70;;;;;;;21.65;86.07;100569.28;7365479;19;20029;-63
2023/08/14 10:20:40;;;;;;;9.27;0.90;;;;;;;21.67;85.04;100560.00;7366245;19;20114;-63
2023/08/14 10:23:08;;;;;;;4.07;0.60;;;;;;;21.66;84.93;100562.91;7365594;19;20028;-63
2023/08/14 10:25:38;;;;;;;7.25;0.73;;;;;;;21.63;84.75;100566.88;7361534;19;20022;-63
2023/08/14 10:28:07;;;;;;;6.65;0.60;;;;;;;21.63;84.35;100572.22;7364603;19;20110;-64
2023/08/14 10:30:36;;;;;;;7.20;0.70;;;;;;;21.62;84.16;100583.16;7361863;19;20052;-63
2023/08/14 10:33:05;;;;;;;5.35;0.52;;;;;;;21.63;84.59;100572.22;7365836;19;20029;-64
2023/08/14 10:35:49;;;;;;;8.55;0.98;;;;;;;21.65;84.54;100564.75;7363684;19;20034;-65
2023/08/14 10:38:18;;;;;;;7.55;0.60;;;;;;;21.70;84.29;100566.75;7361460;19;20044;-64
2023/08/14 10:40:53;;;;;;;9.00;0.85;;;;;;;21.71;83.53;100561.16;7364961;19;20015;-63
2023/08/14 10:43:27;;;;;;;7.10;0.70;;;;;;;21.72;82.64;100570.84;7384435;19;20444;-64
2023/08/14 10:45:54;;;;;;;8.95;0.82;;;;;;;21.72;82.76;100570.00;7388067;19;20591;-64
2023/08/14 10:48:23;;;;;;;7.78;1.08;;;;;;;21.71;81.79;100571.06;7362443;19;20015;-64
2023/08/14 10:51:00;;;;;;;7.65;0.70;;;;;;;21.72;81.20;100570.84;7362436;19;20049;-64
2023/08/14 10:53:30;;;;;;;5.28;0.95;;;;;;;21.72;81.06;100576.19;7361877;19;20043;-63
2023/08/14 10:55:59;;;;;;;8.80;0.65;;;;;;;21.74;80.23;100565.22;7363132;19;20090;-64
2023/08/14 10:58:29;;;;;;;3.20;0.60;;;;;;;21.79;79.30;100548.47;7360882;19;20010;-64
2023/08/14 11:00:57;;;;;;;5.47;0.63;;;;;;;21.83;78.52;100557.69;7362955;19;20048;-66
2023/08/14 11:03:25;;;;;;;5.05;0.60;;;;;;;21.88;78.92;100541.72;7361507;19;20055;-64
2023/08/14 11:05:52;;;;;;;4.93;0.50;;;;;;;21.91;77.45;100551.94;7362748;19;20011;-64
2023/08/14 11:08:22;;;;;;;8.85;0.90;;;;;;;21.93;77.49;100561.41;7362472;19;20025;-64
2023/08/14 11:10:50;;;;;;;6.00;0.80;;;;;;;21.94;78.01;100567.63;7362825;19;20014;-64
2023/08/14 11:13:17;;;;;;;5.35;0.45;;;;;;;21.95;77.66;100566.53;7360081;19;20015;-64
2023/08/14 11:15:44;;;;;;;9.88;0.75;;;;;;;21.93;77.29;100558.72;7364739;19;21742;-64
2023/08/14 11:18:12;;;;;;;10.38;0.60;;;;;;;21.93;77.43;100564.09;7362683;19;20852;-64
2023/08/14 11:20:42;;;;;;;6.07;1.02;;;;;;;21.91;75.68;100560.81;7364231;19;20022;-64
2023/08/14 11:23:10;;;;;;;4.65;0.80;;;;;;;21.90;77.09;100561.84;7365947;19;20022;-64
2023/08/14 11:25:38;;;;;;;7.65;1.40;;;;;;;21.86;76.16;100565.22;7362796;19;20018;-64
2023/08/14 11:28:05;;;;;;;9.20;1.08;;;;;;;21.84;76.06;100570.03;7363666;19;20019;-64
2023/08/14 11:30:34;;;;;;;6.32;0.68;;;;;;;21.86;76.99;100562.56;7363892;19;20018;-64
2023/08/14 11:33:06;;;;;;;6.43;0.50;;;;;;;21.83;77.44;100555.81;7362943;19;20027;-64